KTRK

Truckee-Tahoe Airport

Truckee, California, USA
KTRK 210550Z 2106/2206 VRB02KT P6SM SKC TEMPO 2111/2115 1/2SM FZFG OVC002 FM212100 24008KT P6SM FEW050 FM220200 VRB03KT P6SM FEW040
Issued Valid From Valid To
Apr-21 @ 05:50 UTC
(4 hours ago)
Apr-21 @ 06:00 UTC
(4 hours ago)
Apr-22 @ 06:00 UTC
(in 20 hours)
Apr-21 @ 06:00 to Apr-21 @ 21:00
KTRK 210550Z 2106/2206 VRB02KT P6SM SKC
Wind Visibility Clouds
Variable at 2 knots Greater than 6 miles
  • Clear skies
Temporary Apr-21 @ 11:00 to Apr-21 @ 15:00
TEMPO 2111/2115 1/2SM FZFG OVC002
Visibility Clouds Conditions
1/2 miles
  • Overcast at 200' AGL
  • Freezing
  • Fog
From Apr-21 @ 21:00 to Apr-22 @ 02:00
FM212100 24008KT P6SM FEW050
Wind Visibility Clouds
240° at 8 knots Greater than 6 miles
  • Few at 5,000' AGL
From Apr-22 @ 02:00 to Apr-22 @ 06:00
FM220200 VRB03KT P6SM FEW040
Wind Visibility Clouds
Variable at 3 knots Greater than 6 miles
  • Few at 4,000' AGL
KTRK 210550Z 2106/2206 VRB02KT P6SM SKC TEMPO 2111/2115 1/2SM FZFG OVC002 FM212100 24008KT P6SM FEW050 FM220200 VRB03KT P6SM FEW040
Issued Apr-21 @ 05:50 UTC
(4 hours ago)
Valid From Apr-21 @ 06:00 UTC
(4 hours ago)
Valid To Apr-22 @ 06:00 UTC
(in 20 hours)
Apr-21 @ 06:00 - Apr-21 @ 21:00
Wind Visibility
Variable at 2 knots Greater than 6 miles
Clouds
  • Clear skies
Temporary Apr-21 @ 11:00 - Apr-21 @ 15:00
Clouds
  • Overcast at 200' AGL
Conditions
  • Freezing
  • Fog
From Apr-21 @ 21:00 - Apr-22 @ 02:00
Wind Visibility
240° at 8 knots Greater than 6 miles
Clouds
  • Few at 5,000' AGL
From Apr-22 @ 02:00 - Apr-22 @ 06:00
Wind Visibility
Variable at 3 knots Greater than 6 miles
Clouds
  • Few at 4,000' AGL